Time;durP1;ratioP1;P1;durP2;ratioP2;P2;SDS_P1;SDS_P2;PMS_P1;PMS_P2;Temp;Humidity;BMP_temperature;BMP_pressure;BME280_temperature;BME280_humidity;BME280_pressure;Samples;Min_cycle;Max_cycle;Signal;HPM_P1;HPM_P2
2020/12/01 00:00:14;;;;;;;0.75;0.75;;;2.80;99.90;;;;;;4402739;32;20057;-53
2020/12/01 00:02:40;;;;;;;0.82;0.82;;;2.80;99.90;;;;;;4401568;32;20085;-54
2020/12/01 00:05:06;;;;;;;0.57;0.57;;;2.80;99.90;;;;;;4408888;32;20066;-56
2020/12/01 00:07:32;;;;;;;1.17;0.88;;;2.90;99.90;;;;;;4416375;32;20065;-54
2020/12/01 00:09:57;;;;;;;0.40;0.40;;;2.80;99.90;;;;;;4415272;32;20071;-56
2020/12/01 00:12:23;;;;;;;0.40;0.40;;;2.80;99.90;;;;;;4417616;32;20062;-59
2020/12/01 00:14:48;;;;;;;0.50;0.50;;;2.80;99.90;;;;;;4416272;32;20131;-55
2020/12/01 00:17:14;;;;;;;0.75;0.75;;;2.80;99.90;;;;;;4415982;32;20062;-59
2020/12/01 00:19:39;;;;;;;0.62;0.62;;;2.90;99.90;;;;;;4420323;32;20113;-61
2020/12/01 00:22:05;;;;;;;0.70;0.70;;;2.90;99.90;;;;;;4419928;32;20066;-57
2020/12/01 00:24:30;;;;;;;3.33;0.70;;;3.00;99.90;;;;;;4416003;32;20078;-58
2020/12/01 00:26:56;;;;;;;0.45;0.45;;;2.90;99.90;;;;;;4415609;32;20145;-54
2020/12/01 00:29:21;;;;;;;1.73;1.25;;;2.90;99.90;;;;;;4413553;32;20109;-56
2020/12/01 00:31:47;;;;;;;0.40;0.40;;;2.90;99.90;;;;;;4400651;32;20062;-58
2020/12/01 00:34:14;;;;;;;8.10;0.93;;;2.90;99.90;;;;;;4401032;32;20061;-58
2020/12/01 00:36:41;;;;;;;0.70;0.70;;;2.80;99.90;;;;;;4387315;32;20069;-56
2020/12/01 00:39:07;;;;;;;1.23;1.12;;;2.90;99.90;;;;;;4401233;32;20058;-55
2020/12/01 00:41:37;;;;;;;3.92;0.73;;;2.80;99.90;;;;;;4376276;32;20066;-57
2020/12/01 00:44:03;;;;;;;0.40;0.40;;;2.90;99.90;;;;;;4401490;32;20094;-54
2020/12/01 00:46:29;;;;;;;0.30;0.30;;;2.80;99.90;;;;;;4375664;32;20070;-56
2020/12/01 00:48:54;;;;;;;0.40;0.40;;;2.80;99.90;;;;;;4401375;32;20061;-57
2020/12/01 00:51:21;;;;;;;0.77;0.77;;;2.80;99.90;;;;;;4401763;32;20062;-57
2020/12/01 00:53:47;;;;;;;11.15;1.42;;;2.80;99.90;;;;;;4402920;32;20105;-56
2020/12/01 00:56:19;;;;;;;0.40;0.40;;;2.80;99.90;;;;;;4402154;32;20058;-57
2020/12/01 00:58:44;;;;;;;0.40;0.40;;;2.80;99.90;;;;;;4403189;32;20058;-54
2020/12/01 01:01:10;;;;;;;0.88;0.88;;;2.90;99.90;;;;;;4402908;32;20061;-57
2020/12/01 01:03:35;;;;;;;0.73;0.73;;;3.00;99.90;;;;;;4402683;32;20067;-57
2020/12/01 01:06:01;;;;;;;0.80;0.52;;;3.00;99.90;;;;;;4402985;32;20061;-57
2020/12/01 01:08:26;;;;;;;0.52;0.52;;;3.00;99.90;;;;;;4391723;32;20089;-57
2020/12/01 01:10:53;;;;;;;1.33;1.10;;;3.00;99.90;;;;;;4404072;32;20086;-56
2020/12/01 01:13:19;;;;;;;0.73;0.73;;;3.00;99.90;;;;;;4402852;32;20054;-53
2020/12/01 01:15:44;;;;;;;1.00;1.00;;;3.00;99.90;;;;;;4403018;32;20119;-54
2020/12/01 01:18:10;;;;;;;1.27;1.17;;;3.10;99.90;;;;;;4403345;32;20066;-55
2020/12/01 01:20:35;;;;;;;1.05;0.85;;;3.10;99.90;;;;;;4403996;32;20123;-57
2020/12/01 01:23:01;;;;;;;3.50;1.40;;;3.10;99.90;;;;;;4402867;32;20545;-55
2020/12/01 01:25:26;;;;;;;0.40;0.40;;;3.00;99.90;;;;;;4389063;32;20070;-57
2020/12/01 01:27:52;;;;;;;3.28;1.75;;;3.00;99.90;;;;;;4401497;32;20074;-56
2020/12/01 01:30:21;;;;;;;0.50;0.50;;;3.00;99.90;;;;;;4382686;32;20492;-55
2020/12/01 01:32:46;;;;;;;0.62;0.62;;;3.00;99.90;;;;;;4402047;32;20071;-56
2020/12/01 01:35:13;;;;;;;1.45;1.20;;;3.10;99.90;;;;;;4403178;32;20166;-56
2020/12/01 01:37:38;;;;;;;0.40;0.40;;;3.00;99.90;;;;;;4403280;32;20117;-55
2020/12/01 01:40:05;;;;;;;0.65;0.60;;;3.00;99.90;;;;;;4401608;32;20078;-57
2020/12/01 01:42:30;;;;;;;0.82;0.82;;;3.00;99.90;;;;;;4402417;32;20125;-57
2020/12/01 01:44:56;;;;;;;1.05;0.93;;;3.00;99.90;;;;;;4401219;32;20113;-56
2020/12/01 01:47:26;;;;;;;1.30;0.82;;;3.00;99.90;;;;;;4402731;32;20066;-53
2020/12/01 01:50:14;;;;;;;3.00;0.90;;;3.10;99.90;;;;;;4388164;32;20125;-58
2020/12/01 01:52:43;;;;;;;0.55;0.55;;;3.00;99.90;;;;;;4404026;32;20106;-56
2020/12/01 01:55:13;;;;;;;0.85;0.80;;;2.90;99.90;;;;;;4395375;32;20081;-55
2020/12/01 01:57:42;;;;;;;;;;;2.90;99.90;;;;;;4389310;32;20069;-57
2020/12/01 02:00:19;;;;;;;0.65;0.65;;;2.90;99.90;;;;;;4389071;32;20386;-57
2020/12/01 02:02:44;;;;;;;4.20;1.42;;;2.90;99.90;;;;;;4377566;32;20182;-58
2020/12/01 02:05:10;;;;;;;1.12;0.85;;;2.90;99.90;;;;;;4410574;32;20132;-53
2020/12/01 02:07:35;;;;;;;0.55;0.55;;;3.00;99.90;;;;;;4417893;32;20393;-57
2020/12/01 02:10:01;;;;;;;1.73;0.90;;;3.00;99.90;;;;;;4417357;32;20054;-55
2020/12/01 02:12:27;;;;;;;16.55;1.45;;;3.10;99.90;;;;;;4419241;32;20066;-56
2020/12/01 02:14:58;;;;;;;0.55;0.55;;;3.10;99.90;;;;;;4418239;32;20074;-57
2020/12/01 02:17:28;;;;;;;0.30;0.30;;;3.00;99.90;;;;;;4418022;32;20061;-54
2020/12/01 02:19:56;;;;;;;0.95;0.73;;;3.10;99.90;;;;;;4404087;32;20087;-57
2020/12/01 02:22:24;;;;;;;0.75;0.75;;;3.00;99.90;;;;;;4403302;32;20062;-53
2020/12/01 02:24:51;;;;;;;0.30;0.30;;;3.00;99.90;;;;;;4417782;32;20078;-55
2020/12/01 02:27:19;;;;;;;0.43;0.43;;;3.00;99.90;;;;;;4402769;32;20468;-56
2020/12/01 02:29:47;;;;;;;1.95;1.10;;;3.00;99.90;;;;;;4396984;32;20070;-58
2020/12/01 02:32:15;;;;;;;0.70;0.70;;;2.90;99.90;;;;;;4376309;32;20514;-55
2020/12/01 02:34:43;;;;;;;0.50;0.50;;;2.90;99.90;;;;;;4376080;32;20062;-56
2020/12/01 02:37:11;;;;;;;4.70;1.12;;;2.90;99.90;;;;;;4388454;32;20397;-57
2020/12/01 02:39:37;;;;;;;0.60;0.60;;;2.90;99.90;;;;;;4388429;32;20065;-55
2020/12/01 02:42:07;;;;;;;0.70;0.70;;;2.80;99.90;;;;;;4401971;32;20075;-55
2020/12/01 02:44:32;;;;;;;0.95;0.88;;;2.90;99.90;;;;;;4388496;32;20069;-52
2020/12/01 02:47:03;;;;;;;0.52;0.52;;;2.90;99.90;;;;;;4401731;32;20057;-54
2020/12/01 02:49:28;;;;;;;0.50;0.50;;;2.90;99.90;;;;;;4402645;32;20058;-56
2020/12/01 02:51:54;;;;;;;0.45;0.45;;;2.90;99.90;;;;;;4388691;32;20557;-55
2020/12/01 02:54:20;;;;;;;0.40;0.40;;;3.00;99.90;;;;;;4389930;32;20125;-54
2020/12/01 02:56:45;;;;;;;0.88;0.77;;;3.00;99.90;;;;;;4389889;32;20065;-56
2020/12/01 02:59:13;;;;;;;0.30;0.30;;;3.00;99.90;;;;;;4401964;32;20073;-54
2020/12/01 03:01:38;;;;;;;1.35;1.20;;;3.00;99.90;;;;;;4402678;32;20113;-55
2020/12/01 03:04:04;;;;;;;1.10;0.70;;;3.00;99.90;;;;;;4388907;32;20069;-56
2020/12/01 03:06:29;;;;;;;0.80;0.80;;;3.10;99.90;;;;;;4416255;32;20074;-56
2020/12/01 03:08:55;;;;;;;0.90;0.88;;;3.10;99.90;;;;;;4416992;32;20070;-54
2020/12/01 03:11:20;;;;;;;1.40;0.95;;;3.20;99.90;;;;;;4416306;32;20519;-54
2020/12/01 03:13:46;;;;;;;0.95;0.95;;;3.10;99.90;;;;;;4416081;32;20070;-57
2020/12/01 03:16:12;;;;;;;0.85;0.85;;;3.10;99.90;;;;;;4416300;32;20113;-56
2020/12/01 03:18:39;;;;;;;0.55;0.55;;;3.10;99.90;;;;;;4403929;32;20071;-54
2020/12/01 03:21:06;;;;;;;0.45;0.45;;;3.10;99.90;;;;;;4415765;32;20082;-53
2020/12/01 03:23:32;;;;;;;0.80;0.80;;;3.10;99.90;;;;;;4407507;32;20161;-56
2020/12/01 03:25:58;;;;;;;1.05;0.65;;;3.10;99.90;;;;;;4415806;32;20053;-55
2020/12/01 03:28:24;;;;;;;1.75;1.30;;;3.20;99.90;;;;;;4415611;32;20078;-56
2020/12/01 03:30:49;;;;;;;3.97;1.67;;;3.20;99.90;;;;;;4404513;32;20088;-54
2020/12/01 03:33:16;;;;;;;1.20;1.10;;;3.30;99.90;;;;;;4401169;32;20428;-56
2020/12/01 03:35:42;;;;;;;1.20;1.10;;;3.20;99.90;;;;;;4399735;32;20070;-55
2020/12/01 03:38:08;;;;;;;0.70;0.70;;;3.10;99.90;;;;;;4400810;32;20135;-54
2020/12/01 03:40:33;;;;;;;0.85;0.85;;;3.20;99.90;;;;;;4400454;32;20463;-52
2020/12/01 03:42:59;;;;;;;0.90;0.77;;;3.20;99.90;;;;;;4401944;32;20078;-56
2020/12/01 03:45:24;;;;;;;0.40;0.40;;;3.20;99.90;;;;;;4400449;32;20070;-57
2020/12/01 03:47:55;;;;;;;0.50;0.50;;;3.30;99.90;;;;;;4402127;32;20085;-56
2020/12/01 03:50:23;;;;;;;1.33;1.23;;;3.20;99.90;;;;;;4399426;32;20355;-57
2020/12/01 03:52:49;;;;;;;0.52;0.52;;;3.20;99.90;;;;;;4401053;32;20066;-56
2020/12/01 03:55:14;;;;;;;2.47;1.12;;;3.20;99.90;;;;;;4400138;32;20058;-54
2020/12/01 03:57:40;;;;;;;0.88;0.88;;;3.20;99.90;;;;;;4400032;32;20124;-52
2020/12/01 04:00:10;;;;;;;0.62;0.62;;;3.20;99.90;;;;;;4400287;32;20515;-53
2020/12/01 04:02:36;;;;;;;0.73;0.73;;;3.20;99.90;;;;;;4386741;32;20062;-58
2020/12/01 04:05:02;;;;;;;0.73;0.73;;;3.30;99.90;;;;;;4399074;32;20078;-53
2020/12/01 04:07:27;;;;;;;1.02;0.95;;;3.30;99.90;;;;;;4398953;32;20107;-56
2020/12/01 04:09:53;;;;;;;1.02;0.98;;;3.10;99.90;;;;;;4401041;32;20065;-56
2020/12/01 04:12:18;;;;;;;0.50;0.50;;;3.10;99.90;;;;;;4400144;32;20074;-56
2020/12/01 04:14:44;;;;;;;3.28;1.05;;;3.20;99.90;;;;;;4399533;32;20075;-58
2020/12/01 04:17:09;;;;;;;0.90;0.80;;;3.20;99.90;;;;;;4399834;32;20070;-54
2020/12/01 04:19:34;;;;;;;0.65;0.65;;;3.20;99.90;;;;;;4400622;32;20097;-58
2020/12/01 04:22:00;;;;;;;1.27;1.17;;;3.20;99.90;;;;;;4400324;32;20531;-52
2020/12/01 04:24:25;;;;;;;4.82;1.30;;;3.20;99.90;;;;;;4399294;32;20066;-57
2020/12/01 04:26:51;;;;;;;2.20;1.05;;;3.20;99.90;;;;;;4398777;32;20061;-54
2020/12/01 04:29:16;;;;;;;4.07;1.33;;;3.20;99.90;;;;;;4400966;32;20078;-57
2020/12/01 04:31:42;;;;;;;1.40;1.23;;;3.20;99.90;;;;;;4400166;32;20069;-56
2020/12/01 04:34:08;;;;;;;0.77;0.77;;;3.20;99.90;;;;;;4400921;32;20058;-56
2020/12/01 04:36:33;;;;;;;1.00;1.00;;;3.20;99.90;;;;;;4398863;32;20069;-55
2020/12/01 04:38:59;;;;;;;1.30;1.17;;;3.20;99.90;;;;;;4399893;32;20066;-56
2020/12/01 04:41:25;;;;;;;1.85;1.20;;;3.30;99.90;;;;;;4400213;32;20082;-55
2020/12/01 04:43:55;;;;;;;0.90;0.90;;;3.30;99.90;;;;;;4399114;32;20412;-57
2020/12/01 04:46:25;;;;;;;0.68;0.68;;;3.30;99.90;;;;;;4399712;32;20121;-54
2020/12/01 04:48:58;;;;;;;0.90;0.90;;;3.40;99.90;;;;;;4400866;32;20061;-56
2020/12/01 04:51:39;;;;;;;0.98;0.98;;;3.40;99.90;;;;;;4386183;32;20143;-57
2020/12/01 04:54:21;;;;;;;0.98;0.65;;;3.30;99.90;;;;;;4398490;32;20166;-53
2020/12/01 04:57:01;;;;;;;0.80;0.80;;;3.30;99.90;;;;;;4385449;32;20358;-57
2020/12/01 04:59:47;;;;;;;;;;;3.20;99.90;;;;;;4400950;32;20145;-55
2020/12/01 05:02:40;;;;;;;0.93;0.80;;;3.30;99.90;;;;;;4388924;32;20012;-53
2020/12/01 05:05:54;;;;;;;1.70;1.52;;;3.30;99.90;;;;;;4384323;32;20116;-55
2020/12/01 05:08:38;;;;;;;0.70;0.70;;;3.40;99.90;;;;;;4396285;32;20136;-53
2020/12/01 05:11:40;;;;;;;1.60;1.45;;;3.40;99.90;;;;;;4415230;32;20069;-54
2020/12/01 05:14:23;;;;;;;2.08;1.05;;;3.30;99.90;;;;;;4403603;32;20070;-56
2020/12/01 05:16:55;;;;;;;1.98;1.15;;;3.10;99.90;;;;;;4402038;32;20455;-55
2020/12/01 05:19:35;;;;;;;1.77;1.15;;;3.00;99.90;;;;;;4403124;32;20066;-56
2020/12/01 05:22:00;;;;;;;0.80;0.80;;;3.10;99.90;;;;;;4411976;32;20066;-58
2020/12/01 05:24:47;;;;;;;1.40;1.25;;;3.20;99.90;;;;;;4388605;32;20141;-56
2020/12/01 05:27:30;;;;;;;2.15;1.10;;;3.10;99.90;;;;;;4386260;32;20433;-57
2020/12/01 05:29:59;;;;;;;1.05;0.95;;;3.10;99.90;;;;;;4383633;32;20074;-57
2020/12/01 05:32:29;;;;;;;0.77;0.77;;;3.20;99.90;;;;;;4396882;32;20523;-57
2020/12/01 05:35:06;;;;;;;0.62;0.62;;;3.20;99.90;;;;;;4386740;32;20070;-57
2020/12/01 05:37:31;;;;;;;3.12;1.35;;;3.20;99.90;;;;;;4387294;32;20121;-55
2020/12/01 05:40:03;;;;;;;5.32;2.00;;;3.30;99.90;;;;;;4403399;32;20069;-56
2020/12/01 05:42:28;;;;;;;1.80;1.23;;;3.40;99.90;;;;;;4403195;32;20066;-54
2020/12/01 05:44:56;;;;;;;0.90;0.90;;;3.30;99.90;;;;;;4401507;32;20058;-57
2020/12/01 05:47:32;;;;;;;0.95;0.90;;;3.30;99.90;;;;;;4388861;32;20129;-55
2020/12/01 05:50:09;;;;;;;1.45;1.35;;;3.40;99.90;;;;;;4389742;32;20190;-58
2020/12/01 05:52:49;;;;;;;1.02;0.75;;;3.20;99.90;;;;;;4376000;32;20182;-57
2020/12/01 05:55:18;;;;;;;3.55;1.60;;;3.20;99.90;;;;;;4394546;32;20086;-55
2020/12/01 05:58:00;;;;;;;0.65;0.65;;;3.10;99.90;;;;;;4399981;32;20071;-55
2020/12/01 06:00:29;;;;;;;1.10;1.00;;;3.20;99.90;;;;;;4388122;32;20066;-57
2020/12/01 06:03:29;;;;;;;2.20;1.17;;;3.20;99.90;;;;;;4391833;32;20094;-55
2020/12/01 06:05:58;;;;;;;1.85;1.10;;;3.20;99.90;;;;;;4384485;32;20058;-58
2020/12/01 06:08:37;;;;;;;0.77;0.77;;;3.10;99.90;;;;;;4382965;32;20074;-56
2020/12/01 06:11:24;;;;;;;0.73;0.73;;;3.10;99.90;;;;;;4387200;32;20074;-54
2020/12/01 06:13:50;;;;;;;0.85;0.77;;;3.10;99.90;;;;;;4394371;32;20252;-56
2020/12/01 06:16:40;;;;;;;2.95;2.25;;;3.00;99.90;;;;;;4397794;32;20062;-55
2020/12/01 06:19:31;;;;;;;2.62;1.65;;;3.00;99.90;;;;;;4387921;32;20081;-57
2020/12/01 06:22:18;;;;;;;1.73;1.00;;;3.00;99.90;;;;;;4376429;32;20074;-54
2020/12/01 06:25:05;;;;;;;3.15;1.67;;;3.10;99.90;;;;;;4398227;32;20440;-57
2020/12/01 06:28:04;;;;;;;3.87;1.60;;;3.10;99.90;;;;;;4398837;32;20061;-57
2020/12/01 06:31:07;;;;;;;0.80;0.80;;;3.10;99.90;;;;;;4394297;32;20559;-55
2020/12/01 06:33:58;;;;;;;3.10;0.90;;;3.00;99.90;;;;;;4385167;32;20172;-57
2020/12/01 06:36:57;;;;;;;1.20;1.10;;;3.00;99.90;;;;;;4393832;32;20425;-57
2020/12/01 06:39:47;;;;;;;0.68;0.68;;;3.00;99.90;;;;;;4391971;32;20070;-58
2020/12/01 06:42:37;;;;;;;8.85;1.75;;;2.90;99.90;;;;;;4370456;32;20595;-55
2020/12/01 06:45:26;;;;;;;0.77;0.77;;;2.90;99.90;;;;;;4394011;32;20141;-57
2020/12/01 06:47:59;;;;;;;0.60;0.60;;;2.90;99.90;;;;;;4393502;32;20122;-61
2020/12/01 06:50:25;;;;;;;4.82;0.85;;;3.00;99.90;;;;;;4387654;32;20071;-56
2020/12/01 06:52:56;;;;;;;0.60;0.60;;;3.10;99.90;;;;;;4389054;32;20315;-56
2020/12/01 06:55:46;;;;;;;0.77;0.77;;;3.10;99.90;;;;;;4394302;32;20123;-55
2020/12/01 06:58:19;;;;;;;0.60;0.60;;;3.10;99.90;;;;;;4381227;32;20240;-59
2020/12/01 07:00:44;;;;;;;0.73;0.73;;;3.00;99.90;;;;;;4383547;32;20593;-53
2020/12/01 07:03:10;;;;;;;1.85;1.62;;;3.00;99.90;;;;;;4381291;32;20106;-54
2020/12/01 07:05:36;;;;;;;2.05;1.37;;;3.00;99.90;;;;;;4385241;32;20086;-54
2020/12/01 07:08:26;;;;;;;3.53;1.30;;;2.90;99.90;;;;;;4389721;32;20113;-53
2020/12/01 07:11:12;;;;;;;1.37;1.30;;;2.80;99.90;;;;;;4381866;32;20441;-53
2020/12/01 07:14:00;;;;;;;0.60;0.60;;;2.90;99.90;;;;;;4393097;32;20069;-54
2020/12/01 07:16:47;;;;;;;0.80;0.80;;;3.00;99.90;;;;;;4390794;32;20054;-57
2020/12/01 07:19:19;;;;;;;1.90;1.40;;;3.00;99.90;;;;;;4390924;32;20070;-57
2020/12/01 07:22:06;;;;;;;3.80;2.22;;;3.00;99.90;;;;;;4395230;32;20164;-56
2020/12/01 07:24:58;;;;;;;6.87;1.33;;;3.10;99.90;;;;;;4391643;32;20077;-56
2020/12/01 07:27:32;;;;;;;2.25;1.17;;;3.10;99.90;;;;;;4380722;32;20070;-60
2020/12/01 07:30:15;;;;;;;0.62;0.62;;;3.00;99.90;;;;;;4394894;32;20779;-55
2020/12/01 07:32:48;;;;;;;1.10;0.70;;;3.10;99.90;;;;;;4380136;32;20094;-55
2020/12/01 07:35:37;;;;;;;2.15;1.37;;;3.00;99.90;;;;;;4379468;32;20398;-59
2020/12/01 07:38:25;;;;;;;1.12;1.08;;;3.10;99.90;;;;;;4380351;32;20559;-58
2020/12/01 07:40:55;;;;;;;0.70;0.70;;;3.10;99.90;;;;;;4380843;32;20125;-55
2020/12/01 07:43:22;;;;;;;0.50;0.50;;;3.10;99.90;;;;;;4370274;32;20054;-56
2020/12/01 07:45:49;;;;;;;1.58;0.80;;;3.10;99.90;;;;;;4375882;32;20058;-56
2020/12/01 07:48:18;;;;;;;1.27;1.17;;;3.10;99.90;;;;;;4371227;32;20551;-58
2020/12/01 07:50:44;;;;;;;2.53;1.48;;;3.30;99.90;;;;;;4382306;32;20087;-57
2020/12/01 07:53:14;;;;;;;0.68;0.60;;;3.40;99.90;;;;;;4392804;32;20480;-56
2020/12/01 07:56:03;;;;;;;1.27;1.08;;;3.40;99.90;;;;;;4378761;32;20654;-57
2020/12/01 07:58:30;;;;;;;1.48;1.27;;;3.40;99.90;;;;;;4381102;32;20074;-57
2020/12/01 08:00:58;;;;;;;0.85;0.80;;;3.40;99.90;;;;;;4381678;32;20527;-58
2020/12/01 08:03:35;;;;;;;0.93;0.93;;;3.50;99.90;;;;;;4384467;32;20066;-56
2020/12/01 08:06:06;;;;;;;3.40;1.92;;;3.50;99.90;;;;;;4389522;32;20058;-56
2020/12/01 08:08:36;;;;;;;0.68;0.68;;;3.50;99.90;;;;;;4380786;32;20561;-57
2020/12/01 08:11:05;;;;;;;2.05;1.50;;;3.60;99.90;;;;;;4380296;32;20563;-56
2020/12/01 08:13:33;;;;;;;3.60;1.42;;;3.60;99.90;;;;;;4380828;32;20078;-57
2020/12/01 08:16:02;;;;;;;1.58;1.30;;;3.60;99.90;;;;;;4376209;32;20090;-57
2020/12/01 08:18:30;;;;;;;0.40;0.40;;;3.60;99.90;;;;;;4377062;32;20088;-54
2020/12/01 08:20:57;;;;;;;0.77;0.77;;;3.70;99.90;;;;;;4380953;32;20130;-57
2020/12/01 08:23:27;;;;;;;4.03;1.42;;;3.60;99.90;;;;;;4384167;32;20074;-57
2020/12/01 08:26:17;;;;;;;1.92;1.10;;;3.60;99.90;;;;;;4391238;32;20504;-55
2020/12/01 08:28:48;;;;;;;0.73;0.73;;;3.60;99.90;;;;;;4383853;32;20137;-55
2020/12/01 08:31:38;;;;;;;12.73;1.02;;;3.60;99.90;;;;;;4394390;32;20472;-57
2020/12/01 08:34:22;;;;;;;5.57;1.40;;;3.60;99.90;;;;;;4388681;32;20075;-56
2020/12/01 08:37:10;;;;;;;0.73;0.73;;;3.60;99.90;;;;;;4390397;32;20075;-53
2020/12/01 08:40:15;;;;;;;0.77;0.77;;;3.70;99.90;;;;;;4387464;32;100712;-57
2020/12/01 08:42:51;;;;;;;3.20;1.02;;;3.70;99.90;;;;;;4390903;32;20078;-56
2020/12/01 08:45:46;;;;;;;0.77;0.77;;;3.70;99.90;;;;;;4396472;32;20126;-56
2020/12/01 08:48:21;;;;;;;0.77;0.70;;;3.80;99.90;;;;;;4392690;32;20501;-55
2020/12/01 08:50:55;;;;;;;0.62;0.62;;;3.70;99.90;;;;;;4380336;32;20207;-57
2020/12/01 08:53:21;;;;;;;0.85;0.85;;;3.70;99.90;;;;;;4380076;32;20110;-56
2020/12/01 08:55:51;;;;;;;0.70;0.70;;;3.70;99.90;;;;;;4386424;32;20070;-58
2020/12/01 08:58:29;;;;;;;0.57;0.57;;;3.80;99.90;;;;;;4390879;32;20123;-57
2020/12/01 09:01:01;;;;;;;0.50;0.50;;;3.80;99.90;;;;;;4394392;32;20090;-59
2020/12/01 09:03:28;;;;;;;5.05;1.05;;;3.90;99.90;;;;;;4393996;32;20405;-56
2020/12/01 09:05:53;;;;;;;0.60;0.60;;;4.00;99.90;;;;;;4389589;32;20102;-58
2020/12/01 09:08:36;;;;;;;0.75;0.75;;;4.10;99.90;;;;;;4387363;32;20176;-57
2020/12/01 09:14:07;;;;;;;3.00;1.33;;;4.00;99.90;;;;;;4391775;32;20066;-57
2020/12/01 09:16:49;;;;;;;0.60;0.60;;;3.90;99.90;;;;;;4393129;32;20167;-56
2020/12/01 09:20:54;;;;;;;0.60;0.55;;;4.00;99.90;;;;;;4394000;32;20070;-57
2020/12/01 09:22:12;;;;;;;0.55;0.55;;;4.10;99.90;;;;;;4391227;32;20070;-56
2020/12/01 09:24:39;;;;;;;0.62;0.62;;;4.10;99.90;;;;;;4378315;32;20503;-58
2020/12/01 09:27:07;;;;;;;0.82;0.82;;;4.10;99.90;;;;;;4389790;32;20417;-57
2020/12/01 09:29:33;;;;;;;1.33;1.23;;;4.10;99.90;;;;;;4384861;32;20126;-55
2020/12/01 09:31:59;;;;;;;1.80;1.50;;;4.10;99.90;;;;;;4392055;32;20074;-59
2020/12/01 09:34:30;;;;;;;0.47;0.47;;;4.10;99.90;;;;;;4392519;32;20078;-58
2020/12/01 09:36:58;;;;;;;0.88;0.88;;;4.10;99.90;;;;;;4389717;32;20666;-57
2020/12/01 09:39:24;;;;;;;1.70;0.98;;;4.20;99.90;;;;;;4393081;32;20070;-57
2020/12/01 09:42:00;;;;;;;3.08;0.73;;;4.20;99.90;;;;;;4396886;32;20078;-56
2020/12/01 09:45:28;;;;;;;0.80;0.80;;;4.30;99.90;;;;;;4392640;32;20110;-56
2020/12/01 09:47:18;;;;;;;1.23;1.12;;;4.30;99.90;;;;;;4393276;32;20139;-55
2020/12/01 09:49:43;;;;;;;1.27;0.93;;;4.30;99.90;;;;;;4399603;32;20093;-53
2020/12/01 09:52:16;;;;;;;1.20;0.88;;;4.30;99.90;;;;;;4399582;32;20066;-58
2020/12/01 09:54:48;;;;;;;0.82;0.82;;;4.20;99.90;;;;;;4396995;32;20086;-56
2020/12/01 09:59:49;;;;;;;1.42;1.33;;;4.40;99.90;;;;;;4396875;32;20070;-58
2020/12/01 10:02:52;;;;;;;1.73;1.12;;;4.40;99.90;;;;;;4387093;32;20099;-55
2020/12/01 10:05:15;;;;;;;0.57;0.57;;;4.40;99.90;;;;;;4388908;32;20435;-55
2020/12/01 10:07:51;;;;;;;0.60;0.60;;;4.40;99.90;;;;;;4385916;32;20058;-53
2020/12/01 10:13:11;;;;;;;0.47;0.47;;;4.40;99.90;;;;;;4393153;32;20390;-56
2020/12/01 10:17:24;;;;;;;0.47;0.47;;;4.30;99.90;;;;;;4391570;32;20078;-57
2020/12/01 10:19:00;;;;;;;0.75;0.68;;;4.20;99.90;;;;;;4384000;32;20070;-55
2020/12/01 10:21:53;;;;;;;3.22;0.73;;;4.20;99.90;;;;;;4391689;32;20129;-54
2020/12/01 10:25:04;;;;;;;2.10;1.23;;;4.50;99.90;;;;;;4374509;32;20168;-56
2020/12/01 10:33:55;;;;;;;1.27;1.17;;;4.60;99.90;;;;;;4387944;32;20105;-54
2020/12/01 10:34:47;;;;;;;1.08;1.05;;;4.50;99.90;;;;;;4388571;32;20133;-55
2020/12/01 10:37:12;;;;;;;0.50;0.50;;;4.60;99.90;;;;;;4391852;32;20071;-55
2020/12/01 10:39:38;;;;;;;0.80;0.77;;;4.60;99.90;;;;;;4394140;32;20426;-53
2020/12/01 10:42:07;;;;;;;1.80;1.17;;;4.60;99.90;;;;;;4395122;32;20057;-56
2020/12/01 10:44:33;;;;;;;1.48;1.15;;;4.50;99.90;;;;;;4386118;32;20073;-53
2020/12/01 10:46:58;;;;;;;2.75;1.77;;;4.70;99.90;;;;;;4391868;32;20111;-56
2020/12/01 10:49:24;;;;;;;1.45;1.35;;;4.60;99.90;;;;;;4387084;32;20387;-58
2020/12/01 10:51:50;;;;;;;1.52;1.05;;;4.60;99.90;;;;;;4387186;32;20133;-57
2020/12/01 10:54:16;;;;;;;3.72;0.77;;;4.60;99.90;;;;;;4391163;32;20122;-57
2020/12/01 10:56:44;;;;;;;1.55;1.10;;;4.60;99.90;;;;;;4392310;32;20165;-57
2020/12/01 10:59:10;;;;;;;0.77;0.77;;;4.70;99.90;;;;;;4394734;32;20087;-55
2020/12/01 11:01:35;;;;;;;1.58;1.30;;;4.70;99.90;;;;;;4395492;32;20070;-53
2020/12/01 11:04:01;;;;;;;0.82;0.82;;;4.60;99.90;;;;;;4391897;32;20090;-56
2020/12/01 11:06:27;;;;;;;1.40;1.08;;;4.60;99.90;;;;;;4393865;32;20114;-56
2020/12/01 11:08:52;;;;;;;0.95;0.52;;;4.70;99.90;;;;;;4390576;32;20062;-57
2020/12/01 11:11:18;;;;;;;1.73;1.52;;;4.70;99.90;;;;;;4393753;32;20392;-54
2020/12/01 11:13:44;;;;;;;3.05;1.20;;;4.70;99.90;;;;;;4389260;32;20468;-56
2020/12/01 11:16:10;;;;;;;0.80;0.80;;;4.70;99.90;;;;;;4390717;32;20082;-56
2020/12/01 11:18:35;;;;;;;6.43;0.98;;;4.70;99.90;;;;;;4390051;32;20074;-54
2020/12/01 11:21:00;;;;;;;0.70;0.70;;;4.80;99.90;;;;;;4388888;32;20072;-57
2020/12/01 11:23:26;;;;;;;1.67;0.88;;;4.70;99.90;;;;;;4392916;32;20333;-57
2020/12/01 11:25:51;;;;;;;1.02;0.93;;;4.70;99.90;;;;;;4393214;32;20070;-55
2020/12/01 11:28:17;;;;;;;1.10;0.70;;;4.70;99.90;;;;;;4394566;32;20457;-56
2020/12/01 11:30:42;;;;;;;8.07;1.75;;;4.80;99.90;;;;;;4388245;32;20090;-56
2020/12/01 11:33:08;;;;;;;1.15;0.73;;;4.80;99.90;;;;;;4395437;32;20102;-56
2020/12/01 11:35:34;;;;;;;2.15;1.60;;;4.90;99.90;;;;;;4388374;32;20078;-56
2020/12/01 11:37:59;;;;;;;2.47;1.55;;;5.00;99.90;;;;;;4384858;32;20087;-54
2020/12/01 11:40:25;;;;;;;3.05;1.15;;;5.10;99.90;;;;;;4394205;32;20137;-51
2020/12/01 11:42:50;;;;;;;0.65;0.65;;;5.10;99.90;;;;;;4395312;32;20070;-54
2020/12/01 11:45:16;;;;;;;0.90;0.75;;;5.20;99.90;;;;;;4393685;32;20121;-55
2020/12/01 11:47:41;;;;;;;1.95;0.62;;;5.20;99.90;;;;;;4392894;32;20058;-55
2020/12/01 11:50:09;;;;;;;0.50;0.50;;;5.30;99.90;;;;;;4389334;32;20124;-54
2020/12/01 11:52:35;;;;;;;1.62;1.25;;;5.30;99.90;;;;;;4388734;32;20188;-54
2020/12/01 11:55:00;;;;;;;1.05;0.82;;;5.10;99.90;;;;;;4390329;32;20529;-56
2020/12/01 11:57:26;;;;;;;0.88;0.88;;;4.90;99.90;;;;;;4391023;32;20353;-55
2020/12/01 11:59:51;;;;;;;0.47;0.47;;;4.90;99.90;;;;;;4374334;32;20070;-56
2020/12/01 12:02:17;;;;;;;0.88;0.88;;;4.90;99.90;;;;;;4385162;32;20070;-57
2020/12/01 12:04:42;;;;;;;0.73;0.73;;;5.00;99.90;;;;;;4391704;32;20115;-54
2020/12/01 12:07:09;;;;;;;1.77;1.33;;;5.10;99.90;;;;;;4394418;32;20079;-54
2020/12/01 12:09:34;;;;;;;0.60;0.60;;;5.20;99.90;;;;;;4393283;32;20625;-56
2020/12/01 12:11:59;;;;;;;2.03;1.12;;;5.30;99.90;;;;;;4391875;32;20069;-57
2020/12/01 12:14:25;;;;;;;0.95;0.95;;;5.40;99.90;;;;;;4389865;32;20089;-57
2020/12/01 12:16:52;;;;;;;1.90;0.82;;;5.40;99.90;;;;;;4391709;32;20132;-56
2020/12/01 12:19:18;;;;;;;1.85;0.80;;;5.50;99.90;;;;;;4394767;32;20629;-54
2020/12/01 12:21:43;;;;;;;0.90;0.85;;;5.60;99.90;;;;;;4392716;32;20121;-56
2020/12/01 12:24:09;;;;;;;2.35;1.60;;;5.40;99.90;;;;;;4393585;32;20552;-54
2020/12/01 12:26:34;;;;;;;1.12;0.93;;;5.40;99.90;;;;;;4386588;32;20078;-53
2020/12/01 12:29:00;;;;;;;0.50;0.50;;;5.30;99.90;;;;;;4392702;32;20057;-55
2020/12/01 12:31:26;;;;;;;2.53;1.98;;;5.20;99.90;;;;;;4389349;32;20586;-56
2020/12/01 12:33:52;;;;;;;0.75;0.75;;;5.10;99.90;;;;;;4390739;32;20063;-56
2020/12/01 12:36:17;;;;;;;0.85;0.82;;;5.10;99.90;;;;;;4392059;32;20079;-56
2020/12/01 12:38:43;;;;;;;1.70;1.12;;;5.20;99.90;;;;;;4391805;32;20069;-55
2020/12/01 12:41:08;;;;;;;2.28;1.05;;;5.20;99.90;;;;;;4386216;32;20122;-55
2020/12/01 12:43:35;;;;;;;0.70;0.70;;;5.10;99.90;;;;;;4376821;32;20747;-53
2020/12/01 12:46:00;;;;;;;0.80;0.80;;;5.00;99.90;;;;;;4376413;32;20062;-56
2020/12/01 12:48:28;;;;;;;2.00;1.73;;;5.20;99.90;;;;;;4392701;32;20124;-55
2020/12/01 12:50:54;;;;;;;0.98;0.70;;;5.30;99.90;;;;;;4366317;32;20066;-57
2020/12/01 12:53:20;;;;;;;3.60;1.30;;;5.30;99.90;;;;;;4391764;32;20205;-55
2020/12/01 12:55:45;;;;;;;5.12;1.73;;;5.40;99.90;;;;;;4396686;32;20082;-56
2020/12/01 12:58:11;;;;;;;5.37;1.77;;;5.30;99.90;;;;;;4390549;32;20149;-53
2020/12/01 13:00:36;;;;;;;1.08;1.02;;;5.20;99.90;;;;;;4393094;32;20526;-58
2020/12/01 13:03:03;;;;;;;0.95;0.88;;;5.30;99.90;;;;;;4374033;32;20795;-57
2020/12/01 13:05:29;;;;;;;1.05;0.98;;;5.30;99.90;;;;;;4388358;32;20162;-56
2020/12/01 13:07:55;;;;;;;1.00;0.90;;;5.30;99.90;;;;;;4386419;32;20093;-53
2020/12/01 13:10:21;;;;;;;1.35;1.12;;;5.30;99.90;;;;;;4375695;32;20120;-55
2020/12/01 13:12:47;;;;;;;1.33;1.17;;;5.40;99.90;;;;;;4377645;32;20074;-55
2020/12/01 13:15:14;;;;;;;2.10;1.65;;;5.50;99.90;;;;;;4390341;32;20070;-56
2020/12/01 13:17:40;;;;;;;2.83;0.70;;;5.50;99.90;;;;;;4374425;32;20097;-57
2020/12/01 13:20:11;;;;;;;5.70;1.60;;;5.60;99.90;;;;;;4391342;32;20125;-56
2020/12/01 13:22:37;;;;;;;1.23;0.75;;;5.70;99.90;;;;;;4371937;32;20083;-56
2020/12/01 13:25:03;;;;;;;4.78;1.27;;;5.80;99.90;;;;;;4383725;32;20070;-56
2020/12/01 13:27:28;;;;;;;0.93;0.88;;;5.70;99.90;;;;;;4381655;32;20421;-58
2020/12/01 13:29:54;;;;;;;5.93;2.00;;;5.60;99.90;;;;;;4392122;32;20492;-57